Time;durP1;ratioP1;P1;durP2;ratioP2;P2;SDS_P1;SDS_P2;PMS_P1;PMS_P2;Temp;Humidity;BMP_temperature;BMP_pressure;BME280_temperature;BME280_humidity;BME280_pressure;Samples;Min_cycle;Max_cycle;Signal;HPM_P1;HPM_P2
2023/05/02 00:02:03;;;;;;;15.25;3.92;;;10.20;99.90;;;;;;5028591;28;20060;-60
2023/05/02 00:04:29;;;;;;;13.52;3.92;;;10.20;99.90;;;;;;5031739;28;20392;-59
2023/05/02 00:06:55;;;;;;;10.75;3.50;;;10.10;99.90;;;;;;5021299;28;20034;-60
2023/05/02 00:09:21;;;;;;;14.35;3.97;;;10.10;99.90;;;;;;5026182;28;20049;-60
2023/05/02 00:11:46;;;;;;;9.80;3.28;;;10.10;99.90;;;;;;5018496;28;20029;-58
2023/05/02 00:14:12;;;;;;;15.48;5.32;;;10.10;99.90;;;;;;5021888;28;20132;-60
2023/05/02 00:16:38;;;;;;;10.75;3.58;;;10.10;99.90;;;;;;5027430;28;20056;-60
2023/05/02 00:19:03;;;;;;;9.45;3.80;;;10.00;99.90;;;;;;5022511;28;20042;-59
2023/05/02 00:21:30;;;;;;;10.27;3.63;;;10.10;99.90;;;;;;5024144;28;20046;-60
2023/05/02 00:23:56;;;;;;;11.15;3.42;;;10.00;99.90;;;;;;5028209;28;20085;-60
2023/05/02 00:26:22;;;;;;;10.45;3.47;;;10.00;99.90;;;;;;5027687;28;20068;-60
2023/05/02 00:28:48;;;;;;;12.10;3.88;;;10.00;99.90;;;;;;5024282;28;20046;-60
2023/05/02 00:31:14;;;;;;;9.85;2.85;;;9.90;99.90;;;;;;5026319;28;20038;-60
2023/05/02 00:33:40;;;;;;;7.93;2.92;;;9.90;99.90;;;;;;5026897;28;20483;-60
2023/05/02 00:36:16;;;;;;;8.15;3.35;;;9.90;99.90;;;;;;5029850;28;20468;-60
2023/05/02 00:38:42;;;;;;;9.45;3.15;;;9.90;99.90;;;;;;5021447;28;20045;-59
2023/05/02 00:41:08;;;;;;;8.43;2.90;;;9.90;99.90;;;;;;5025101;28;20060;-58
2023/05/02 00:43:35;;;;;;;6.68;3.10;;;9.90;99.90;;;;;;5027265;28;20034;-60
2023/05/02 00:46:02;;;;;;;8.23;3.55;;;9.90;99.90;;;;;;5029259;28;20033;-60
2023/05/02 00:48:27;;;;;;;12.60;3.83;;;9.90;99.90;;;;;;5031905;28;20037;-60
2023/05/02 00:50:54;;;;;;;7.85;3.30;;;9.90;99.90;;;;;;5029388;28;20546;-60
2023/05/02 00:53:20;;;;;;;7.53;3.10;;;9.90;99.90;;;;;;5016415;28;20060;-60
2023/05/02 00:55:48;;;;;;;10.57;4.25;;;9.90;99.90;;;;;;5030707;28;20408;-60
2023/05/02 00:58:18;;;;;;;10.50;3.75;;;9.90;99.90;;;;;;5028362;28;20045;-60
2023/05/02 01:01:25;;;;;;;14.80;4.65;;;9.80;99.90;;;;;;5026898;28;20539;-60
2023/05/02 01:04:05;;;;;;;18.17;5.03;;;9.80;99.90;;;;;;5025683;28;20087;-59
2023/05/02 01:06:47;;;;;;;18.67;5.15;;;9.80;99.90;;;;;;5028207;28;20495;-60
2023/05/02 01:09:43;;;;;;;18.38;5.40;;;9.80;99.90;;;;;;5012417;28;20038;-60
2023/05/02 01:12:27;;;;;;;20.25;5.30;;;9.80;99.90;;;;;;5031474;28;20045;-59
2023/05/02 01:14:56;;;;;;;21.38;5.75;;;9.80;99.90;;;;;;5026947;28;20038;-60
2023/05/02 01:17:33;;;;;;;24.58;4.22;;;9.70;99.90;;;;;;5026015;28;20056;-59
2023/05/02 01:20:03;;;;;;;14.07;4.60;;;9.70;99.90;;;;;;5026094;28;20111;-59
2023/05/02 01:22:31;;;;;;;16.88;4.75;;;9.80;99.90;;;;;;5028527;28;20121;-60
2023/05/02 01:25:38;;;;;;;17.98;4.60;;;9.70;99.90;;;;;;5028352;28;20511;-60
2023/05/02 01:28:23;;;;;;;16.60;4.15;;;9.70;99.90;;;;;;5028814;28;20060;-60
2023/05/02 01:30:50;;;;;;;13.23;4.65;;;9.70;99.90;;;;;;5031538;28;20431;-60
2023/05/02 01:33:17;;;;;;;19.40;4.55;;;9.60;99.90;;;;;;5024710;28;20057;-60
2023/05/02 01:35:45;;;;;;;18.85;4.65;;;9.60;99.90;;;;;;5025057;28;20115;-60
2023/05/02 01:38:14;;;;;;;22.27;5.03;;;9.50;99.90;;;;;;5023863;28;20532;-59
2023/05/02 01:40:43;;;;;;;18.17;4.50;;;9.50;99.90;;;;;;5027921;28;20044;-60
2023/05/02 01:43:11;;;;;;;22.52;4.38;;;9.50;99.90;;;;;;5028267;28;20037;-60
2023/05/02 01:45:38;;;;;;;16.88;4.20;;;9.40;99.90;;;;;;5025997;28;20048;-60
2023/05/02 01:48:06;;;;;;;15.65;4.03;;;9.40;99.90;;;;;;5044770;28;20622;-60
2023/05/02 01:50:33;;;;;;;21.30;4.68;;;9.40;99.90;;;;;;5027723;28;20091;-60
2023/05/02 01:53:02;;;;;;;24.52;5.35;;;9.30;99.90;;;;;;5024915;28;20044;-60
2023/05/02 01:55:28;;;;;;;18.90;4.93;;;9.30;99.90;;;;;;5028276;28;20053;-60
2023/05/02 01:57:56;;;;;;;24.73;5.10;;;9.20;99.90;;;;;;5027992;28;20094;-60
2023/05/02 02:00:24;;;;;;;23.08;5.50;;;9.20;99.90;;;;;;5011101;28;20084;-60
2023/05/02 02:02:52;;;;;;;21.25;5.10;;;9.30;99.90;;;;;;5019555;28;20046;-60
2023/05/02 02:05:20;;;;;;;20.90;5.20;;;9.20;99.90;;;;;;5028319;28;20044;-60
2023/05/02 02:07:46;;;;;;;20.73;4.88;;;9.20;99.90;;;;;;5033628;28;20042;-61
2023/05/02 02:10:12;;;;;;;24.23;5.72;;;9.20;99.90;;;;;;5026427;28;20037;-60
2023/05/02 02:12:42;;;;;;;25.63;5.43;;;9.10;99.90;;;;;;5031327;28;20045;-60
2023/05/02 02:15:30;;;;;;;15.23;4.22;;;9.00;99.90;;;;;;5033802;28;20116;-60
2023/05/02 02:18:13;;;;;;;28.15;6.18;;;9.00;99.90;;;;;;5030612;28;20045;-60
2023/05/02 02:20:43;;;;;;;28.90;6.03;;;9.00;99.90;;;;;;5023400;28;20704;-60
2023/05/02 02:23:11;;;;;;;28.33;5.88;;;9.00;99.90;;;;;;5027776;28;20049;-60
2023/05/02 02:25:38;;;;;;;28.45;5.78;;;9.00;99.90;;;;;;5026337;28;20103;-60
2023/05/02 02:28:04;;;;;;;26.63;6.40;;;9.00;99.90;;;;;;5027935;28;20044;-60
2023/05/02 02:30:30;;;;;;;21.15;5.40;;;9.00;99.90;;;;;;5027662;28;20057;-60
2023/05/02 02:32:56;;;;;;;19.83;5.78;;;8.90;99.90;;;;;;5025525;28;20057;-60
2023/05/02 02:35:22;;;;;;;23.67;6.25;;;8.90;99.90;;;;;;5023116;28;20037;-60
2023/05/02 02:37:57;;;;;;;21.38;5.20;;;8.90;99.90;;;;;;5029205;28;20077;-60
2023/05/02 02:40:33;;;;;;;20.48;6.07;;;8.90;99.90;;;;;;5027773;28;20045;-60
2023/05/02 02:43:44;;;;;;;21.67;6.32;;;8.90;99.90;;;;;;5025224;28;20079;-60
2023/05/02 02:46:13;;;;;;;17.23;4.75;;;8.90;99.90;;;;;;5002458;28;20053;-60
2023/05/02 02:48:54;;;;;;;24.50;4.65;;;8.70;99.90;;;;;;5024595;28;20045;-59
2023/05/02 02:51:31;;;;;;;18.67;4.20;;;8.80;99.90;;;;;;5024408;28;20166;-60
2023/05/02 02:54:10;;;;;;;14.40;4.47;;;8.70;99.90;;;;;;5023951;28;20045;-60
2023/05/02 02:56:39;;;;;;;23.02;4.32;;;8.70;99.90;;;;;;5030150;28;20051;-60
2023/05/02 02:59:22;;;;;;;18.75;4.60;;;8.70;99.90;;;;;;5030945;28;20052;-60
2023/05/02 03:02:05;;;;;;;19.60;3.63;;;8.60;99.90;;;;;;5022780;28;20792;-59
2023/05/02 03:04:33;;;;;;;15.40;3.93;;;8.60;99.90;;;;;;5026610;28;20300;-59
2023/05/02 03:07:00;;;;;;;17.73;3.90;;;8.60;99.90;;;;;;5028994;28;20523;-59
2023/05/02 03:09:29;;;;;;;18.98;3.83;;;8.50;99.90;;;;;;5024885;28;20057;-60
2023/05/02 03:12:04;;;;;;;13.52;3.17;;;8.40;99.90;;;;;;5026696;28;20047;-59
2023/05/02 03:14:49;;;;;;;12.68;2.90;;;8.40;99.90;;;;;;5027250;28;20500;-59
2023/05/02 03:17:15;;;;;;;12.75;2.80;;;8.30;99.90;;;;;;5027410;28;20033;-59
2023/05/02 03:19:40;;;;;;;14.27;2.90;;;8.30;99.90;;;;;;5025289;28;20048;-60
2023/05/02 03:22:06;;;;;;;13.65;3.10;;;8.40;99.90;;;;;;5010284;28;20523;-60
2023/05/02 03:24:32;;;;;;;13.65;3.00;;;8.40;99.90;;;;;;5025636;28;20029;-60
2023/05/02 03:26:58;;;;;;;15.95;3.75;;;8.40;99.90;;;;;;5026669;28;20057;-59
2023/05/02 03:29:25;;;;;;;12.75;2.92;;;8.40;99.90;;;;;;5022765;28;20037;-60
2023/05/02 03:31:51;;;;;;;13.43;3.10;;;8.40;99.90;;;;;;5020167;28;20049;-59
2023/05/02 03:34:18;;;;;;;11.38;3.33;;;8.30;99.90;;;;;;5025998;28;20037;-59
2023/05/02 03:36:44;;;;;;;11.13;3.25;;;8.30;99.90;;;;;;5023734;28;20099;-59
2023/05/02 03:39:11;;;;;;;10.57;2.35;;;8.20;99.90;;;;;;5025849;28;20120;-60
2023/05/02 03:41:36;;;;;;;15.43;3.15;;;8.30;99.90;;;;;;5025021;28;20643;-59
2023/05/02 03:44:02;;;;;;;10.07;2.70;;;8.30;99.90;;;;;;5024406;28;20045;-60
2023/05/02 03:46:28;;;;;;;11.43;2.97;;;8.30;99.90;;;;;;5021430;28;20048;-60
2023/05/02 03:48:56;;;;;;;9.77;2.42;;;8.40;99.90;;;;;;5025045;28;20041;-60
2023/05/02 03:51:22;;;;;;;13.07;2.70;;;8.40;99.90;;;;;;5028655;28;20559;-60
2023/05/02 03:53:48;;;;;;;17.25;3.05;;;8.40;99.90;;;;;;5024772;28;20041;-60
2023/05/02 03:56:18;;;;;;;15.68;2.78;;;8.30;99.90;;;;;;5026686;28;20590;-60
2023/05/02 03:58:45;;;;;;;9.45;2.20;;;8.30;99.90;;;;;;5009803;28;20692;-60
2023/05/02 04:01:15;;;;;;;11.82;3.30;;;8.20;99.90;;;;;;5026884;28;20500;-59
2023/05/02 04:03:41;;;;;;;6.45;2.17;;;8.20;99.90;;;;;;5026128;28;20067;-61
2023/05/02 04:06:07;;;;;;;9.82;2.35;;;8.20;99.90;;;;;;5042500;28;20033;-60
2023/05/02 04:08:32;;;;;;;17.10;3.53;;;8.20;99.90;;;;;;5022438;28;20044;-60
2023/05/02 04:10:58;;;;;;;16.95;3.58;;;8.10;99.90;;;;;;5026960;28;20049;-60
2023/05/02 04:13:24;;;;;;;13.40;2.35;;;8.10;99.90;;;;;;5028107;28;20052;-61
2023/05/02 04:15:49;;;;;;;8.27;1.85;;;8.00;99.90;;;;;;5037166;28;20038;-61
2023/05/02 04:18:15;;;;;;;8.27;2.10;;;8.00;99.90;;;;;;5029126;28;20483;-60
2023/05/02 04:20:44;;;;;;;11.85;2.00;;;8.00;99.90;;;;;;5025711;28;20038;-61
2023/05/02 04:23:10;;;;;;;9.43;1.67;;;7.90;99.90;;;;;;5031573;28;20037;-61
2023/05/02 04:25:35;;;;;;;8.13;1.95;;;7.90;99.90;;;;;;5031854;28;20036;-61
2023/05/02 04:28:01;;;;;;;10.50;2.38;;;7.90;99.90;;;;;;5027461;28;20045;-61
2023/05/02 04:30:27;;;;;;;6.97;1.77;;;8.30;99.90;;;;;;5030792;28;20041;-60
2023/05/02 04:32:52;;;;;;;8.68;2.08;;;7.80;99.90;;;;;;5008963;28;20535;-61
2023/05/02 04:35:18;;;;;;;14.45;3.67;;;7.90;99.90;;;;;;5027834;28;20090;-61
2023/05/02 04:37:44;;;;;;;6.97;1.90;;;7.90;99.90;;;;;;5029883;28;20033;-60
2023/05/02 04:40:10;;;;;;;7.93;2.33;;;7.90;99.90;;;;;;5035337;28;20366;-61
2023/05/02 04:42:36;;;;;;;6.63;1.80;;;7.90;99.90;;;;;;5029487;28;20060;-61
2023/05/02 04:45:02;;;;;;;12.25;2.15;;;7.90;99.90;;;;;;5029267;28;20030;-60
2023/05/02 04:47:27;;;;;;;6.20;2.30;;;7.90;99.90;;;;;;5018370;28;20049;-60
2023/05/02 04:49:53;;;;;;;8.30;2.28;;;8.00;99.90;;;;;;5030387;28;20666;-60
2023/05/02 04:52:19;;;;;;;8.00;2.40;;;8.00;99.90;;;;;;5028247;28;20249;-60
2023/05/02 04:54:44;;;;;;;12.30;2.33;;;8.00;99.90;;;;;;5021696;28;20038;-60
2023/05/02 04:57:10;;;;;;;12.07;2.50;;;8.00;99.90;;;;;;5023354;28;20343;-60
2023/05/02 04:59:37;;;;;;;12.45;2.40;;;8.00;99.90;;;;;;5010935;28;20038;-60
2023/05/02 05:02:03;;;;;;;11.18;2.33;;;8.00;99.90;;;;;;5026709;28;20048;-60
2023/05/02 05:04:28;;;;;;;10.77;2.38;;;7.90;99.90;;;;;;5033002;28;20430;-60
2023/05/02 05:06:54;;;;;;;7.85;2.42;;;7.90;99.90;;;;;;5028158;28;20041;-60
2023/05/02 05:09:20;;;;;;;8.73;2.67;;;8.00;99.90;;;;;;5023255;28;20045;-60
2023/05/02 05:11:46;;;;;;;10.02;2.63;;;8.00;99.90;;;;;;5027277;28;20397;-60
2023/05/02 05:14:12;;;;;;;10.25;2.60;;;8.00;99.90;;;;;;5025636;28;20040;-60
2023/05/02 05:16:38;;;;;;;7.20;2.20;;;8.00;99.90;;;;;;5028918;28;20045;-60
2023/05/02 05:19:04;;;;;;;8.40;2.30;;;8.00;99.90;;;;;;5023195;28;20040;-61
2023/05/02 05:21:29;;;;;;;11.30;2.53;;;8.00;99.90;;;;;;5025533;28;20045;-62
2023/05/02 05:23:55;;;;;;;7.93;2.33;;;8.00;99.90;;;;;;5027693;28;20041;-62
2023/05/02 05:26:22;;;;;;;12.80;2.85;;;8.00;99.90;;;;;;5015338;28;20480;-62
2023/05/02 05:28:49;;;;;;;11.70;2.55;;;8.00;99.90;;;;;;5025332;28;20038;-62
2023/05/02 05:31:16;;;;;;;9.50;2.83;;;8.00;99.90;;;;;;5040147;28;20754;-61
2023/05/02 05:33:42;;;;;;;9.70;2.25;;;8.00;99.90;;;;;;5026361;28;20072;-61
2023/05/02 05:36:10;;;;;;;14.70;2.70;;;8.00;99.90;;;;;;5025279;28;20515;-60
2023/05/02 05:38:36;;;;;;;11.95;2.80;;;8.00;99.90;;;;;;5026786;28;20041;-60
2023/05/02 05:41:02;;;;;;;10.80;2.40;;;8.00;99.90;;;;;;5032021;28;20750;-60
2023/05/02 05:43:28;;;;;;;12.32;2.58;;;8.00;99.90;;;;;;5028930;28;20064;-60
2023/05/02 05:45:55;;;;;;;15.38;2.78;;;8.00;99.90;;;;;;5009970;28;20045;-61
2023/05/02 05:48:21;;;;;;;6.82;2.15;;;8.10;99.90;;;;;;5044529;28;20076;-60
2023/05/02 05:50:47;;;;;;;16.95;4.38;;;8.10;99.90;;;;;;5023768;28;20495;-57
2023/05/02 05:53:14;;;;;;;12.50;2.83;;;8.10;99.90;;;;;;5023370;28;20041;-60
2023/05/02 05:55:40;;;;;;;15.65;2.95;;;8.10;99.90;;;;;;5028939;28;20037;-60
2023/05/02 05:58:07;;;;;;;12.65;2.90;;;8.10;99.90;;;;;;5021606;28;22546;-58
2023/05/02 06:00:37;;;;;;;10.77;2.58;;;8.10;99.90;;;;;;5016972;28;20033;-59
2023/05/02 06:03:03;;;;;;;9.25;2.63;;;8.10;99.90;;;;;;5023199;28;20041;-60
2023/05/02 06:05:29;;;;;;;10.40;2.63;;;8.10;99.90;;;;;;5025563;28;20038;-58
2023/05/02 06:07:58;;;;;;;10.25;2.80;;;8.10;99.90;;;;;;5029405;28;20053;-59
2023/05/02 06:10:25;;;;;;;12.00;2.88;;;8.10;99.90;;;;;;5027365;28;20041;-62
2023/05/02 06:12:50;;;;;;;13.57;3.70;;;8.20;99.90;;;;;;5013378;28;20120;-61
2023/05/02 06:15:17;;;;;;;9.88;2.83;;;8.20;99.90;;;;;;5028329;28;20136;-59
2023/05/02 06:17:42;;;;;;;11.75;2.63;;;8.20;99.90;;;;;;5027943;28;20048;-61
2023/05/02 06:20:08;;;;;;;9.85;2.70;;;8.20;99.90;;;;;;5028829;28;20160;-59
2023/05/02 06:22:35;;;;;;;9.75;2.45;;;8.20;99.90;;;;;;5008664;28;20049;-61
2023/05/02 06:25:01;;;;;;;9.18;2.22;;;8.20;99.90;;;;;;5025450;28;20046;-60
2023/05/02 06:27:27;;;;;;;9.13;2.50;;;8.30;99.90;;;;;;5028370;28;20620;-59
2023/05/02 06:29:53;;;;;;;17.75;3.25;;;8.20;99.70;;;;;;5025665;28;20145;-60
2023/05/02 06:32:19;;;;;;;12.43;2.60;;;8.30;99.80;;;;;;5021439;28;20460;-61
2023/05/02 06:34:45;;;;;;;10.55;3.35;;;8.30;99.90;;;;;;5017921;28;20056;-60
2023/05/02 06:37:11;;;;;;;8.38;2.75;;;8.30;99.90;;;;;;5025068;28;20048;-61
2023/05/02 06:39:36;;;;;;;9.00;2.72;;;8.40;99.90;;;;;;5025558;28;20042;-60
2023/05/02 06:42:02;;;;;;;17.05;2.65;;;8.40;99.90;;;;;;5029668;28;20416;-60
2023/05/02 06:44:28;;;;;;;10.40;2.60;;;8.30;99.90;;;;;;5025341;28;20081;-60
2023/05/02 06:46:54;;;;;;;13.60;3.00;;;8.30;99.90;;;;;;5028563;28;20498;-60
2023/05/02 06:49:24;;;;;;;11.73;2.90;;;8.30;99.90;;;;;;5022117;28;20063;-59
2023/05/02 06:51:50;;;;;;;12.38;3.40;;;8.40;99.90;;;;;;5025277;28;20041;-62
2023/05/02 06:54:16;;;;;;;12.10;3.10;;;8.30;99.90;;;;;;5024943;28;20051;-59
2023/05/02 06:56:42;;;;;;;11.20;2.72;;;8.30;99.90;;;;;;5018201;28;20152;-61
2023/05/02 06:59:07;;;;;;;12.88;3.22;;;8.20;99.90;;;;;;5019138;28;20547;-61
2023/05/02 07:01:33;;;;;;;13.10;3.00;;;8.20;99.90;;;;;;5019842;28;20042;-61
2023/05/02 07:04:00;;;;;;;14.85;3.20;;;8.30;99.90;;;;;;5019173;28;20099;-60
2023/05/02 07:06:26;;;;;;;14.45;3.28;;;8.40;99.90;;;;;;5018583;28;20045;-61
2023/05/02 07:08:52;;;;;;;15.02;3.95;;;8.40;99.90;;;;;;5020514;28;20053;-61
2023/05/02 07:11:18;;;;;;;14.82;3.95;;;8.40;99.90;;;;;;5023235;28;20045;-60
2023/05/02 07:13:44;;;;;;;9.10;3.00;;;8.40;99.90;;;;;;5024246;28;20045;-61
2023/05/02 07:16:10;;;;;;;9.68;2.55;;;8.50;99.90;;;;;;5020785;28;20041;-61
2023/05/02 07:18:36;;;;;;;15.93;3.22;;;8.50;99.90;;;;;;5022428;28;20099;-61
2023/05/02 07:21:02;;;;;;;11.52;3.28;;;8.50;99.90;;;;;;5023976;28;20038;-61
2023/05/02 07:23:28;;;;;;;8.77;2.90;;;8.50;99.90;;;;;;5020083;28;20034;-60
2023/05/02 07:25:54;;;;;;;8.90;2.65;;;8.50;99.90;;;;;;5004216;28;20048;-61
2023/05/02 07:28:20;;;;;;;12.65;2.63;;;8.60;99.90;;;;;;5007349;28;20029;-60
2023/05/02 07:30:45;;;;;;;9.38;2.80;;;8.60;99.90;;;;;;4987058;28;20439;-60
2023/05/02 07:33:11;;;;;;;14.10;2.65;;;8.70;99.90;;;;;;5023709;28;20037;-60
2023/05/02 07:35:37;;;;;;;9.20;3.08;;;8.60;99.90;;;;;;5024057;28;20049;-60
2023/05/02 07:38:02;;;;;;;7.20;2.35;;;8.70;99.90;;;;;;5025833;28;20377;-61
2023/05/02 07:40:28;;;;;;;14.75;3.00;;;8.80;99.90;;;;;;5025590;28;20049;-60
2023/05/02 07:42:54;;;;;;;9.30;2.78;;;8.90;99.90;;;;;;5001460;28;20037;-59
2023/05/02 07:45:19;;;;;;;10.10;2.65;;;8.90;99.90;;;;;;5022415;28;20037;-61
2023/05/02 07:47:48;;;;;;;10.70;2.67;;;9.00;99.90;;;;;;5027248;28;20026;-61
2023/05/02 07:50:14;;;;;;;11.45;2.88;;;9.10;99.90;;;;;;5021245;28;20050;-60
2023/05/02 07:52:39;;;;;;;11.35;2.53;;;9.10;99.90;;;;;;5008714;28;20125;-60
2023/05/02 07:55:06;;;;;;;10.52;2.70;;;9.20;99.90;;;;;;5025294;28;20381;-62
2023/05/02 07:57:32;;;;;;;7.22;2.15;;;9.20;99.90;;;;;;5020758;28;20068;-61
2023/05/02 07:59:58;;;;;;;6.95;2.17;;;9.30;99.90;;;;;;5019812;28;20428;-62
2023/05/02 08:02:24;;;;;;;10.60;3.40;;;9.30;99.40;;;;;;5021357;28;20057;-61
2023/05/02 08:04:50;;;;;;;10.35;2.25;;;9.10;97.50;;;;;;5015215;28;20037;-61
2023/05/02 08:07:16;;;;;;;12.90;2.92;;;9.10;98.30;;;;;;5022966;28;20084;-61
2023/05/02 08:09:42;;;;;;;8.43;2.05;;;9.20;98.60;;;;;;5023659;28;20069;-61
2023/05/02 08:12:08;;;;;;;8.45;2.00;;;9.20;97.70;;;;;;5026819;28;20038;-60
2023/05/02 08:14:33;;;;;;;6.53;2.47;;;9.20;98.20;;;;;;5025627;28;20057;-60
2023/05/02 08:16:59;;;;;;;9.50;2.63;;;9.20;98.20;;;;;;5024633;28;20077;-60
2023/05/02 08:19:26;;;;;;;7.63;2.00;;;9.30;98.80;;;;;;5028614;28;20045;-60
2023/05/02 08:21:55;;;;;;;14.10;4.32;;;9.30;97.60;;;;;;5024391;28;20049;-61
2023/05/02 08:24:21;;;;;;;7.90;2.15;;;9.20;98.30;;;;;;5026914;28;20037;-59
2023/05/02 08:26:47;;;;;;;10.15;2.85;;;9.20;98.40;;;;;;5022197;28;20121;-61
2023/05/02 08:29:12;;;;;;;10.05;2.35;;;9.20;97.80;;;;;;5024032;28;20124;-61
2023/05/02 08:31:39;;;;;;;7.70;2.20;;;9.20;97.80;;;;;;5022683;28;20492;-60
2023/05/02 08:34:05;;;;;;;9.50;2.72;;;9.20;98.10;;;;;;5023298;28;20536;-60
2023/05/02 08:36:31;;;;;;;18.10;2.40;;;9.20;98.40;;;;;;5022161;28;20526;-62
2023/05/02 08:38:57;;;;;;;10.73;2.50;;;9.30;98.50;;;;;;5020500;28;20041;-61
2023/05/02 08:41:24;;;;;;;10.75;2.03;;;9.30;98.30;;;;;;5018188;28;20052;-61
2023/05/02 08:43:50;;;;;;;6.63;1.88;;;9.30;98.00;;;;;;4997260;28;20106;-59
2023/05/02 08:46:16;;;;;;;8.85;2.42;;;9.30;98.60;;;;;;5025538;28;20600;-62
2023/05/02 08:48:46;;;;;;;11.27;1.88;;;9.40;98.60;;;;;;5025229;28;20712;-61
2023/05/02 08:51:17;;;;;;;7.03;1.70;;;9.40;98.40;;;;;;5019621;28;20107;-61
2023/05/02 08:53:44;;;;;;;7.00;2.22;;;9.40;98.00;;;;;;5019330;28;20085;-62
2023/05/02 08:56:11;;;;;;;4.70;1.48;;;9.30;97.20;;;;;;5025661;28;20049;-61
2023/05/02 08:58:37;;;;;;;7.45;1.40;;;9.40;97.30;;;;;;5026584;28;20080;-62
2023/05/02 09:01:14;;;;;;;4.00;1.30;;;9.50;97.30;;;;;;5019981;28;20107;-63
2023/05/02 09:03:41;;;;;;;9.20;1.55;;;9.70;97.80;;;;;;5023619;28;20548;-61
2023/05/02 09:06:09;;;;;;;10.02;1.60;;;9.70;96.90;;;;;;5017166;28;20037;-62
2023/05/02 09:08:36;;;;;;;5.78;1.00;;;9.70;95.80;;;;;;5022284;28;20435;-62
2023/05/02 09:11:03;;;;;;;3.45;1.30;;;9.70;95.10;;;;;;5024726;28;20408;-61
2023/05/02 09:13:38;;;;;;;4.28;1.02;;;9.70;95.10;;;;;;5003409;28;20049;-60
2023/05/02 09:16:15;;;;;;;5.72;1.52;;;9.80;95.80;;;;;;5027339;28;20041;-61
2023/05/02 09:18:46;;;;;;;2.15;0.80;;;10.00;96.10;;;;;;5026045;28;20038;-60
2023/05/02 09:21:19;;;;;;;13.63;1.92;;;10.20;95.70;;;;;;5021483;28;20077;-61
2023/05/02 09:23:46;;;;;;;3.17;1.40;;;10.40;96.00;;;;;;5019801;28;20038;-61
2023/05/02 09:26:19;;;;;;;5.82;1.23;;;10.50;95.10;;;;;;5023049;28;20049;-62
2023/05/02 09:28:48;;;;;;;7.70;1.88;;;10.40;95.00;;;;;;5019013;28;20046;-62
2023/05/02 09:31:16;;;;;;;6.00;1.50;;;10.30;94.70;;;;;;5023354;28;20042;-61
2023/05/02 09:33:43;;;;;;;5.93;1.48;;;10.20;95.20;;;;;;5017533;28;20577;-60
2023/05/02 09:36:13;;;;;;;7.53;1.25;;;10.30;95.80;;;;;;5023945;28;20523;-61
2023/05/02 09:38:40;;;;;;;8.40;1.80;;;10.40;95.60;;;;;;5024318;28;20050;-61
2023/05/02 09:41:06;;;;;;;7.25;1.95;;;10.30;96.30;;;;;;5021951;28;20053;-61
2023/05/02 09:43:32;;;;;;;2.88;1.25;;;10.40;96.80;;;;;;5018164;28;20045;-61
2023/05/02 09:46:09;;;;;;;5.38;1.13;;;10.50;96.80;;;;;;5026902;28;20041;-59
2023/05/02 09:48:56;;;;;;;9.00;2.03;;;10.50;96.90;;;;;;5021116;28;20133;-60
2023/05/02 09:51:23;;;;;;;5.15;1.60;;;10.40;96.50;;;;;;5024822;28;20049;-60
2023/05/02 09:53:49;;;;;;;7.18;1.10;;;10.40;96.80;;;;;;5021171;28;20048;-61
2023/05/02 09:56:15;;;;;;;6.05;1.30;;;10.50;96.40;;;;;;5019433;28;20180;-61
2023/05/02 09:58:41;;;;;;;3.13;1.15;;;10.60;96.00;;;;;;5006182;28;20712;-58
2023/05/02 10:01:07;;;;;;;5.13;1.40;;;10.80;96.50;;;;;;5021460;28;20076;-59
2023/05/02 10:03:36;;;;;;;4.28;1.58;;;11.20;96.80;;;;;;5005610;28;20045;-60
2023/05/02 10:06:04;;;;;;;9.75;2.72;;;11.00;95.40;;;;;;5022577;28;20385;-60
2023/05/02 10:08:32;;;;;;;3.45;1.08;;;10.70;94.70;;;;;;5021365;28;20042;-60
2023/05/02 10:10:59;;;;;;;5.63;1.38;;;10.30;95.20;;;;;;5018606;28;20086;-61
2023/05/02 10:13:30;;;;;;;5.65;1.30;;;10.10;95.90;;;;;;5020808;28;20357;-61
2023/05/02 10:16:06;;;;;;;4.65;1.10;;;10.40;95.90;;;;;;5020591;28;20120;-61
2023/05/02 10:18:41;;;;;;;3.70;1.00;;;10.70;95.80;;;;;;5026494;28;20187;-61
2023/05/02 10:21:11;;;;;;;3.33;1.08;;;11.20;96.00;;;;;;5020138;28;20045;-62
2023/05/02 10:23:43;;;;;;;5.15;1.20;;;11.60;95.50;;;;;;5013625;28;20080;-62
2023/05/02 10:26:16;;;;;;;7.40;1.98;;;11.60;95.10;;;;;;5012724;28;20041;-62
2023/05/02 10:28:42;;;;;;;7.20;1.70;;;11.30;96.90;;;;;;5020890;28;20046;-62
2023/05/02 10:31:12;;;;;;;7.30;1.80;;;11.00;97.80;;;;;;5019886;28;20111;-61
2023/05/02 10:33:39;;;;;;;8.43;1.70;;;11.00;98.60;;;;;;5022234;28;20042;-60
2023/05/02 10:36:07;;;;;;;5.53;1.67;;;11.00;98.70;;;;;;4990487;28;20045;-59
2023/05/02 10:38:34;;;;;;;6.95;1.60;;;10.90;98.00;;;;;;5026135;28;20033;-60
2023/05/02 10:41:07;;;;;;;5.85;1.25;;;10.70;98.30;;;;;;5028820;28;20037;-61
2023/05/02 10:43:36;;;;;;;4.75;1.67;;;10.80;98.50;;;;;;5022783;28;20038;-60
2023/05/02 10:46:02;;;;;;;3.53;1.13;;;10.80;98.20;;;;;;5021149;28;20026;-62
2023/05/02 10:48:29;;;;;;;5.80;1.92;;;10.90;97.90;;;;;;5022633;28;20108;-60
2023/05/02 10:51:02;;;;;;;6.50;1.77;;;11.00;98.30;;;;;;5025834;28;20037;-59
2023/05/02 10:53:35;;;;;;;5.75;1.55;;;11.20;98.20;;;;;;5037011;28;20504;-61
2023/05/02 10:56:21;;;;;;;9.27;1.80;;;11.30;98.20;;;;;;5020490;28;20060;-62
2023/05/02 10:58:52;;;;;;;6.20;1.50;;;11.10;97.90;;;;;;5026100;28;21001;-62
2023/05/02 11:01:25;;;;;;;10.23;1.83;;;11.00;97.60;;;;;;5021773;28;20104;-61
2023/05/02 11:04:08;;;;;;;5.00;2.43;;;11.10;98.30;;;;;;5025760;28;20480;-61
2023/05/02 11:06:59;;;;;;;9.88;1.40;;;11.30;98.20;;;;;;5024047;28;20044;-60
2023/05/02 11:09:29;;;;;;;2.80;1.00;;;11.50;98.00;;;;;;5017044;28;20053;-62
2023/05/02 11:11:56;;;;;;;3.67;1.02;;;11.60;96.60;;;;;;5012241;28;20045;-59
2023/05/02 11:14:33;;;;;;;3.65;1.05;;;11.60;96.80;;;;;;5023658;28;20038;-61
2023/05/02 11:17:04;;;;;;;4.15;1.30;;;11.70;97.20;;;;;;5028911;28;20135;-58
2023/05/02 11:19:56;;;;;;;4.63;1.35;;;11.60;97.10;;;;;;5007251;28;20042;-60
2023/05/02 11:22:26;;;;;;;5.20;1.13;;;11.30;96.60;;;;;;5006970;28;20041;-60
2023/05/02 11:24:53;;;;;;;6.95;2.40;;;11.20;97.00;;;;;;5028270;28;20496;-60
2023/05/02 11:27:32;;;;;;;9.68;1.60;;;11.40;97.40;;;;;;5033550;28;20117;-60
2023/05/02 11:29:59;;;;;;;5.57;1.45;;;11.60;97.70;;;;;;5009623;28;20432;-59
2023/05/02 11:32:48;;;;;;;3.80;1.30;;;11.40;97.50;;;;;;5026122;28;20060;-59
2023/05/02 11:35:22;;;;;;;4.70;1.60;;;11.40;98.40;;;;;;5025934;28;20652;-59
2023/05/02 11:37:58;;;;;;;4.30;1.48;;;11.60;97.90;;;;;;5026870;28;20037;-59
2023/05/02 11:40:25;;;;;;;4.82;1.50;;;11.50;97.00;;;;;;5009307;28;20053;-59
2023/05/02 11:42:51;;;;;;;6.25;1.63;;;11.20;97.50;;;;;;5031287;28;20112;-60
2023/05/02 11:45:17;;;;;;;5.47;1.30;;;10.70;97.10;;;;;;5005352;28;20069;-58
2023/05/02 11:47:45;;;;;;;3.95;1.42;;;10.80;97.60;;;;;;4989794;28;20098;-59
2023/05/02 11:50:11;;;;;;;5.28;1.30;;;11.00;98.10;;;;;;5025398;28;20030;-60
2023/05/02 11:52:39;;;;;;;5.15;1.00;;;11.10;97.80;;;;;;5025647;28;20542;-60
2023/05/02 11:55:10;;;;;;;3.40;1.10;;;11.10;96.90;;;;;;5026319;28;20041;-58
2023/05/02 11:57:38;;;;;;;4.75;1.10;;;11.00;96.80;;;;;;5022803;28;20038;-60
2023/05/02 12:00:05;;;;;;;2.65;1.10;;;10.90;96.10;;;;;;5022010;28;20037;-60
2023/05/02 12:02:41;;;;;;;2.85;1.00;;;11.20;96.20;;;;;;5021720;28;20049;-61
2023/05/02 12:05:09;;;;;;;5.03;1.70;;;11.50;96.00;;;;;;5005025;28;20064;-60
2023/05/02 12:07:38;;;;;;;3.40;1.10;;;11.60;95.80;;;;;;5025013;28;20533;-60
2023/05/02 12:10:06;;;;;;;6.60;1.02;;;11.80;96.30;;;;;;5025903;28;20033;-61
2023/05/02 12:12:32;;;;;;;3.33;1.27;;;11.70;95.80;;;;;;5031990;28;20444;-59
2023/05/02 12:15:02;;;;;;;6.25;1.27;;;11.50;95.90;;;;;;5028244;28;20029;-60
2023/05/02 12:17:28;;;;;;;5.18;1.05;;;11.60;96.10;;;;;;5013148;28;20049;-60
2023/05/02 12:19:54;;;;;;;3.10;1.10;;;11.70;96.20;;;;;;5025142;28;20109;-60
2023/05/02 12:22:23;;;;;;;7.28;1.52;;;11.80;96.30;;;;;;5021276;28;20034;-60
2023/05/02 12:24:50;;;;;;;5.35;1.20;;;11.60;96.30;;;;;;5026328;28;20037;-60
2023/05/02 12:27:16;;;;;;;3.08;1.23;;;11.40;97.00;;;;;;5025793;28;20139;-60
2023/05/02 12:29:46;;;;;;;5.95;1.40;;;11.20;97.20;;;;;;5024251;28;20503;-59
2023/05/02 12:32:14;;;;;;;7.65;1.90;;;11.10;97.90;;;;;;5026385;28;20037;-60
2023/05/02 12:34:40;;;;;;;3.88;1.42;;;10.80;98.00;;;;;;5018234;28;20413;-61
2023/05/02 12:37:07;;;;;;;6.03;1.17;;;10.70;98.60;;;;;;5025354;28;20034;-61
2023/05/02 12:39:41;;;;;;;6.28;1.42;;;10.70;98.70;;;;;;5025821;28;20037;-61
2023/05/02 12:42:13;;;;;;;;;;;10.70;98.80;;;;;;5026742;28;20048;-60
2023/05/02 12:44:41;;;;;;;5.65;1.13;;;10.60;98.70;;;;;;5023735;28;19925;-61
2023/05/02 12:47:13;;;;;;;4.82;1.08;;;10.50;98.90;;;;;;5020692;28;20076;-61
2023/05/02 12:49:53;;;;;;;4.65;1.10;;;10.30;98.70;;;;;;5021559;28;20037;-60
2023/05/02 12:52:20;;;;;;;6.63;1.38;;;10.30;98.90;;;;;;5029123;28;20045;-60
2023/05/02 12:54:46;;;;;;;5.13;1.15;;;10.40;98.60;;;;;;5021433;28;20037;-60
2023/05/02 12:57:22;;;;;;;4.00;1.20;;;10.40;98.10;;;;;;5025933;28;20034;-60